createdAt,value
2023-03-03T00:00:25.493Z,61.83
2023-03-03T00:02:52.202Z,66.60
2023-03-03T00:05:18.658Z,63.60
2023-03-03T00:07:45.582Z,63.90
2023-03-03T00:10:13.341Z,70.30
2023-03-03T00:12:48.653Z,61.67
2023-03-03T00:15:25.810Z,66.73
2023-03-03T00:17:53.380Z,69.93
2023-03-03T00:20:22.883Z,62.40
2023-03-03T00:22:49.592Z,61.30
2023-03-03T00:25:19.318Z,62.22
2023-03-03T00:27:45.815Z,59.93
2023-03-03T00:30:25.127Z,64.40
2023-03-03T00:32:52.494Z,66.73
2023-03-03T00:35:29.067Z,60.87
2023-03-03T00:38:12.361Z,58.07
2023-03-03T00:40:40.970Z,59.70
2023-03-03T00:43:28.974Z,61.90
2023-03-03T00:45:56.735Z,57.50
2023-03-03T00:48:29.304Z,62.00
2023-03-03T00:51:01.121Z,56.97
2023-03-03T00:53:30.340Z,66.30
2023-03-03T00:55:58.068Z,64.43
2023-03-03T00:58:25.623Z,59.70
2023-03-03T01:00:54.384Z,62.90
2023-03-03T01:03:23.880Z,62.43
2023-03-03T01:05:51.257Z,63.63
2023-03-03T01:08:18.392Z,58.93
2023-03-03T01:10:59.931Z,60.10
2023-03-03T01:13:29.864Z,62.27
2023-03-03T01:15:56.707Z,63.57
2023-03-03T01:18:23.432Z,63.20
2023-03-03T01:20:49.863Z,57.03
2023-03-03T01:23:16.559Z,59.67
2023-03-03T01:25:43.392Z,57.17
2023-03-03T01:28:10.303Z,65.83
2023-03-03T01:30:36.923Z,64.27
2023-03-03T01:33:03.862Z,60.43
2023-03-03T01:35:30.587Z,58.43
2023-03-03T01:37:58.120Z,63.73
2023-03-03T01:40:30.984Z,57.40
2023-03-03T01:43:00.134Z,73.67
2023-03-03T01:45:42.589Z,63.20
2023-03-03T01:48:32.963Z,65.60
2023-03-03T01:51:03.661Z,63.58
2023-03-03T01:53:46.293Z,63.20
2023-03-03T01:56:12.770Z,60.50
2023-03-03T01:58:44.442Z,71.40
2023-03-03T02:01:27.493Z,66.43
2023-03-03T02:03:54.731Z,66.53
2023-03-03T02:06:26.543Z,58.33
2023-03-03T02:09:15.541Z,61.30
2023-03-03T02:11:44.499Z,59.33
2023-03-03T02:14:12.502Z,64.47
2023-03-03T02:16:40.698Z,63.77
2023-03-03T02:19:18.622Z,65.13
2023-03-03T02:21:45.212Z,63.80
2023-03-03T02:24:42.759Z,53.63
2023-03-03T02:27:09.388Z,67.67
2023-03-03T02:29:35.782Z,60.97
2023-03-03T02:32:02.997Z,68.83
2023-03-03T02:34:29.689Z,57.47
2023-03-03T02:36:56.205Z,65.50
2023-03-03T02:39:26.903Z,63.30
2023-03-03T02:42:08.197Z,63.47
2023-03-03T02:44:35.237Z,62.70
2023-03-03T02:47:01.849Z,62.90
2023-03-03T02:49:33.925Z,64.20
2023-03-03T02:52:02.178Z,61.63
2023-03-03T02:54:30.647Z,59.83
2023-03-03T02:56:58.151Z,66.03
2023-03-03T02:59:24.603Z,58.43
2023-03-03T03:01:51.617Z,63.93
2023-03-03T03:04:24.208Z,64.63
2023-03-03T03:06:51.615Z,60.90
2023-03-03T03:09:19.394Z,59.57
2023-03-03T03:11:46.427Z,60.27
2023-03-03T03:14:14.219Z,63.53
2023-03-03T03:16:41.258Z,60.60
2023-03-03T03:19:08.885Z,63.40
2023-03-03T03:21:35.561Z,64.33
2023-03-03T03:24:01.920Z,63.40
2023-03-03T03:26:28.288Z,70.73
2023-03-03T03:28:54.927Z,64.03
2023-03-03T03:31:21.731Z,58.80
2023-03-03T03:33:48.780Z,62.83
2023-03-03T03:36:15.148Z,60.23
2023-03-03T03:38:41.934Z,62.07
2023-03-03T03:41:08.312Z,65.70
2023-03-03T03:43:35.384Z,65.60
2023-03-03T03:46:02.340Z,64.17
2023-03-03T03:48:29.566Z,61.90
2023-03-03T03:50:56.001Z,65.07
2023-03-03T03:53:22.484Z,73.80
2023-03-03T03:55:49.209Z,59.77
2023-03-03T03:58:17.516Z,65.37
2023-03-03T04:00:46.100Z,64.77
2023-03-03T04:03:12.967Z,68.70
2023-03-03T04:05:39.405Z,66.67
2023-03-03T04:08:06.452Z,72.87
2023-03-03T04:10:32.795Z,74.00
2023-03-03T04:12:59.303Z,71.33
2023-03-03T04:15:25.894Z,67.93
2023-03-03T04:17:52.444Z,64.60
2023-03-03T04:20:19.243Z,79.73
2023-03-03T04:22:45.736Z,69.07
2023-03-03T04:25:16.104Z,70.90
2023-03-03T04:27:43.866Z,66.85
2023-03-03T04:30:15.583Z,75.03
2023-03-03T04:32:42.839Z,66.23
2023-03-03T04:35:10.207Z,71.13
2023-03-03T04:37:38.209Z,63.00
2023-03-03T04:40:06.995Z,66.33
2023-03-03T04:42:33.837Z,66.40
2023-03-03T04:45:00.674Z,69.10
2023-03-03T04:47:27.169Z,70.20
2023-03-03T04:49:53.633Z,68.53
2023-03-03T04:52:20.154Z,66.93
2023-03-03T04:54:46.838Z,66.40
2023-03-03T04:57:13.281Z,68.03
2023-03-03T04:59:39.998Z,66.07
2023-03-03T05:02:06.497Z,61.53
2023-03-03T05:04:33.580Z,62.57
2023-03-03T05:07:00.105Z,66.47
2023-03-03T05:09:26.514Z,62.50
2023-03-03T05:11:53.228Z,62.23
2023-03-03T05:14:19.775Z,64.17
2023-03-03T05:16:46.370Z,65.03
2023-03-03T05:19:12.880Z,63.63
2023-03-03T05:21:39.554Z,64.53
2023-03-03T05:24:06.090Z,63.80
2023-03-03T05:26:32.778Z,68.53
2023-03-03T05:28:59.114Z,61.97
2023-03-03T05:31:25.952Z,62.73
2023-03-03T05:33:52.895Z,58.20
2023-03-03T05:36:19.431Z,63.07
2023-03-03T05:38:46.058Z,66.37
2023-03-03T05:41:12.864Z,60.37
2023-03-03T05:43:39.297Z,59.93
2023-03-03T05:46:05.678Z,63.23
2023-03-03T05:48:32.578Z,65.00
2023-03-03T05:50:59.493Z,64.00
2023-03-03T05:53:27.316Z,63.30
2023-03-03T05:55:54.256Z,66.53
2023-03-03T05:58:21.228Z,67.07
2023-03-03T06:00:48.288Z,66.67
2023-03-03T06:03:14.782Z,71.37
2023-03-03T06:05:41.237Z,68.13
2023-03-03T06:08:07.727Z,64.10
2023-03-03T06:10:34.236Z,65.77
2023-03-03T06:13:00.776Z,64.27
2023-03-03T06:15:27.463Z,64.83
2023-03-03T06:17:54.057Z,67.80
2023-03-03T06:20:20.989Z,68.87
2023-03-03T06:22:47.534Z,63.90
2023-03-03T06:25:14.563Z,64.97
2023-03-03T06:27:40.968Z,67.37
2023-03-03T06:30:08.214Z,65.90
2023-03-03T06:32:35.013Z,65.03
2023-03-03T06:35:01.491Z,66.83
2023-03-03T06:37:28.110Z,66.97
2023-03-03T06:39:54.837Z,64.33
2023-03-03T06:42:21.336Z,61.10
2023-03-03T06:44:48.040Z,66.83
2023-03-03T06:47:14.734Z,64.70
2023-03-03T06:49:41.197Z,62.33
2023-03-03T06:52:20.604Z,58.13
2023-03-03T06:54:47.172Z,60.50
2023-03-03T06:57:25.471Z,69.47
2023-03-03T06:59:55.178Z,72.70
2023-03-03T07:02:22.425Z,66.77
2023-03-03T07:04:49.128Z,64.17
2023-03-03T07:07:26.439Z,64.77
2023-03-03T07:09:57.257Z,55.63
2023-03-03T07:12:30.252Z,67.53
2023-03-03T07:15:17.890Z,63.60
2023-03-03T07:17:50.520Z,63.45
2023-03-03T07:20:23.688Z,63.30
2023-03-03T07:22:50.702Z,74.30
2023-03-03T07:25:28.532Z,66.70
2023-03-03T07:28:00.214Z,70.07
2023-03-03T07:30:29.179Z,64.07
2023-03-03T07:32:58.710Z,63.70
2023-03-03T07:35:39.442Z,64.57
2023-03-03T07:38:37.456Z,64.28
2023-03-03T07:41:10.174Z,63.55
2023-03-03T07:43:43.709Z,61.40
2023-03-03T07:46:10.434Z,67.50
2023-03-03T07:48:42.547Z,61.15
2023-03-03T07:51:22.454Z,71.57
2023-03-03T07:53:49.219Z,65.03
2023-03-03T07:56:25.996Z,66.20
2023-03-03T07:58:52.457Z,71.65
2023-03-03T08:01:40.797Z,61.78
2023-03-03T08:04:16.496Z,64.88
2023-03-03T08:06:50.097Z,63.83
2023-03-03T08:09:19.635Z,63.30
2023-03-03T08:11:57.642Z,65.53
2023-03-03T08:14:34.045Z,68.18
2023-03-03T08:17:01.970Z,73.80
2023-03-03T08:19:31.642Z,66.35
2023-03-03T08:22:12.663Z,64.72
2023-03-03T08:27:05.566Z,65.68
2023-03-03T08:29:32.811Z,74.60
2023-03-03T08:31:59.346Z,63.90
2023-03-03T08:34:26.375Z,69.57
2023-03-03T08:36:52.813Z,72.70
2023-03-03T08:39:19.573Z,65.40
2023-03-03T08:41:46.020Z,85.30
2023-03-03T08:44:12.440Z,68.40
2023-03-03T08:46:40.337Z,80.72
2023-03-03T08:49:06.832Z,57.72
2023-03-03T08:51:33.365Z,62.10
2023-03-03T08:53:59.836Z,66.13
2023-03-03T08:56:26.286Z,64.55
2023-03-03T08:59:02.121Z,55.42
2023-03-03T09:01:32.913Z,59.72
2023-03-03T09:03:59.809Z,63.05
2023-03-03T09:06:26.341Z,57.00
2023-03-03T09:08:53.362Z,68.38
2023-03-03T09:11:25.197Z,61.97
2023-03-03T09:13:54.449Z,65.00
2023-03-03T09:16:22.302Z,66.32
2023-03-03T09:18:51.223Z,64.03
2023-03-03T09:21:26.388Z,63.15
2023-03-03T09:24:02.192Z,58.95
2023-03-03T09:26:47.529Z,54.40
2023-03-03T09:29:14.221Z,69.45
2023-03-03T09:31:53.470Z,60.47
2023-03-03T09:34:24.434Z,49.70
2023-03-03T09:36:53.241Z,52.15
2023-03-03T09:39:25.159Z,51.75
2023-03-03T09:42:13.204Z,53.70
2023-03-03T09:45:08.918Z,51.67
2023-03-03T09:48:04.612Z,56.22
2023-03-03T09:51:09.108Z,50.78
2023-03-03T09:53:46.937Z,61.22
2023-03-03T09:56:31.340Z,47.47
2023-03-03T09:59:06.380Z,49.70
2023-03-03T10:01:57.663Z,48.28
2023-03-03T10:05:01.585Z,52.58
2023-03-03T10:07:37.398Z,48.72
2023-03-03T10:10:43.224Z,52.22
2023-03-03T10:13:22.604Z,48.92
2023-03-03T10:16:11.150Z,46.72
2023-03-03T10:18:50.215Z,52.97
2023-03-03T10:21:20.383Z,47.83
2023-03-03T10:24:06.135Z,52.80
2023-03-03T10:27:13.814Z,52.20
2023-03-03T10:29:52.453Z,52.63
2023-03-03T10:32:32.974Z,66.40
2023-03-03T10:35:19.271Z,52.67
2023-03-03T10:38:23.067Z,54.47
2023-03-03T10:41:08.126Z,49.55
2023-03-03T10:43:46.047Z,61.90
2023-03-03T10:46:39.426Z,49.35
2023-03-03T10:49:20.100Z,55.92
2023-03-03T10:52:03.289Z,51.50
2023-03-03T10:55:08.643Z,50.28
2023-03-03T10:57:53.696Z,53.58
2023-03-03T11:00:27.738Z,55.40
2023-03-03T11:03:07.185Z,62.95
2023-03-03T11:05:57.838Z,51.60
2023-03-03T11:08:33.775Z,49.80
2023-03-03T11:11:36.959Z,75.20
2023-03-03T11:14:14.170Z,52.60
2023-03-03T11:17:18.289Z,48.45
2023-03-03T11:20:29.430Z,53.58
2023-03-03T11:25:30.615Z,49.97
2023-03-03T11:28:03.666Z,48.75
2023-03-03T11:30:36.258Z,51.72
2023-03-03T11:33:06.174Z,52.38
2023-03-03T11:35:45.685Z,51.67
2023-03-03T11:38:53.773Z,42.10
2023-03-03T11:41:50.688Z,44.28
2023-03-03T11:44:31.533Z,50.38
2023-03-03T11:47:20.003Z,46.65
2023-03-03T11:50:14.128Z,47.70
2023-03-03T11:53:08.270Z,44.85
2023-03-03T11:55:41.584Z,46.28
2023-03-03T11:58:20.956Z,49.22
2023-03-03T12:01:15.304Z,51.35
2023-03-03T12:03:53.603Z,51.47
2023-03-03T12:06:50.695Z,55.42
2023-03-03T12:09:31.010Z,48.72
2023-03-03T12:12:02.390Z,48.83
2023-03-03T12:15:04.175Z,54.50
2023-03-03T12:17:51.076Z,52.58
2023-03-03T12:20:34.990Z,58.40
2023-03-03T12:23:18.815Z,51.10
2023-03-03T12:25:57.259Z,46.95
2023-03-03T12:28:41.196Z,46.92
2023-03-03T12:31:16.869Z,46.13
2023-03-03T12:33:59.229Z,47.67
2023-03-03T12:36:53.817Z,46.38
2023-03-03T12:39:48.417Z,44.42
2023-03-03T12:42:27.070Z,49.80
2023-03-03T12:45:14.967Z,50.42
2023-03-03T12:47:57.376Z,46.13
2023-03-03T12:50:38.878Z,46.90
2023-03-03T12:53:33.238Z,51.35
2023-03-03T12:56:30.545Z,51.28
2023-03-03T12:59:05.812Z,44.13
2023-03-03T13:01:38.435Z,43.65
2023-03-03T13:04:21.938Z,48.47
2023-03-03T13:06:58.944Z,47.97
2023-03-03T13:10:02.447Z,47.72
2023-03-03T13:12:49.596Z,49.78
2023-03-03T13:15:31.675Z,43.97
2023-03-03T13:18:31.491Z,52.75
2023-03-03T13:21:15.597Z,48.80
2023-03-03T13:23:57.600Z,49.28
2023-03-03T13:26:38.521Z,46.58
2023-03-03T13:31:41.627Z,45.05
2023-03-03T13:36:50.844Z,52.65
2023-03-03T13:39:26.000Z,44.58
2023-03-03T13:42:37.454Z,44.00
2023-03-03T13:45:41.835Z,44.90
2023-03-03T13:48:38.499Z,56.95
2023-03-03T13:51:26.541Z,47.97
2023-03-03T13:54:08.034Z,51.15
2023-03-03T13:56:49.455Z,48.15
2023-03-03T13:59:36.934Z,40.95
2023-03-03T14:02:31.283Z,53.95
2023-03-03T14:05:17.747Z,45.45
2023-03-03T14:08:23.205Z,39.50
2023-03-03T14:11:15.355Z,40.70
2023-03-03T14:14:30.091Z,41.00
2023-03-03T14:17:12.832Z,42.40
2023-03-03T14:20:05.251Z,41.28
2023-03-03T14:22:51.869Z,44.60
2023-03-03T14:25:19.505Z,40.17
2023-03-03T14:27:49.088Z,47.53
2023-03-03T14:30:28.256Z,41.08
2023-03-03T14:33:16.523Z,40.13
2023-03-03T14:35:50.365Z,42.08
2023-03-03T14:38:23.571Z,40.55
2023-03-03T14:41:23.649Z,38.88
2023-03-03T14:43:58.328Z,40.17
2023-03-03T14:46:28.102Z,34.22
2023-03-03T14:48:58.377Z,38.50
2023-03-03T14:51:34.536Z,37.80
2023-03-03T14:54:01.557Z,40.38
2023-03-03T14:56:39.171Z,40.85
2023-03-03T14:59:14.678Z,40.13
2023-03-03T15:01:42.506Z,38.65
2023-03-03T15:04:16.013Z,45.33
2023-03-03T15:06:45.459Z,36.33
2023-03-03T15:09:24.368Z,41.28
2023-03-03T15:11:53.818Z,40.28
2023-03-03T15:14:28.938Z,38.25
2023-03-03T15:17:00.778Z,37.65
2023-03-03T15:19:44.783Z,36.20
2023-03-03T15:22:22.379Z,37.38
2023-03-03T15:25:09.090Z,40.28
2023-03-03T15:27:42.449Z,42.25
2023-03-03T15:30:16.076Z,36.20
2023-03-03T15:32:53.969Z,40.70
2023-03-03T15:35:26.882Z,36.35
2023-03-03T15:38:19.931Z,41.95
2023-03-03T15:40:49.827Z,41.35
2023-03-03T15:43:34.861Z,39.83
2023-03-03T15:46:20.290Z,40.80
2023-03-03T15:49:18.510Z,38.90
2023-03-03T15:52:03.929Z,38.22
2023-03-03T15:54:36.585Z,46.67
2023-03-03T15:57:57.716Z,44.58
2023-03-03T16:00:34.028Z,40.15
2023-03-03T16:03:24.381Z,40.75
2023-03-03T16:05:58.933Z,43.00
2023-03-03T16:08:55.295Z,39.83
2023-03-03T16:11:32.726Z,45.00
2023-03-03T16:14:02.726Z,45.35
2023-03-03T16:16:50.076Z,41.33
2023-03-03T16:19:35.062Z,43.65
2023-03-03T16:22:13.503Z,42.72
2023-03-03T16:24:56.481Z,40.92
2023-03-03T16:28:15.765Z,39.10
2023-03-03T16:30:58.110Z,43.55
2023-03-03T16:33:40.515Z,40.15
2023-03-03T16:36:54.130Z,39.58
2023-03-03T16:39:49.652Z,40.97
2023-03-03T16:42:36.015Z,44.55
2023-03-03T16:45:27.082Z,44.47
2023-03-03T16:50:45.246Z,40.03
2023-03-03T16:53:23.619Z,42.40
2023-03-03T16:56:21.682Z,42.25
2023-03-03T16:58:59.037Z,40.35
2023-03-03T17:01:25.586Z,36.83
2023-03-03T17:03:58.468Z,41.90
2023-03-03T17:06:42.015Z,45.95
2023-03-03T17:09:31.531Z,45.55
2023-03-03T17:12:42.040Z,40.65
2023-03-03T17:15:22.594Z,52.10
2023-03-03T17:18:13.845Z,54.85
2023-03-03T17:20:47.777Z,69.32
2023-03-03T17:23:26.547Z,63.47
2023-03-03T17:26:27.482Z,46.30
2023-03-03T17:29:09.892Z,52.58
2023-03-03T17:32:08.736Z,59.88
2023-03-03T17:34:49.311Z,52.95
2023-03-03T17:37:33.384Z,55.90
2023-03-03T17:40:19.589Z,60.08
2023-03-03T17:43:14.966Z,58.22
2023-03-03T17:45:45.525Z,63.47
2023-03-03T17:48:21.211Z,53.38
2023-03-03T17:50:59.610Z,61.63
2023-03-03T17:54:03.042Z,53.88
2023-03-03T17:57:01.839Z,62.28
2023-03-03T17:59:56.674Z,54.08
2023-03-03T18:02:43.473Z,59.53
2023-03-03T18:05:25.558Z,50.53
2023-03-03T18:08:44.826Z,52.55
2023-03-03T18:11:40.825Z,49.45
2023-03-03T18:14:31.840Z,50.05
2023-03-03T18:19:30.961Z,51.35
2023-03-03T18:22:17.981Z,45.88
2023-03-03T18:24:50.899Z,49.20
2023-03-03T18:27:40.158Z,52.15
2023-03-03T18:30:15.597Z,52.58
2023-03-03T18:32:44.950Z,53.33
2023-03-03T18:35:25.621Z,54.97
2023-03-03T18:37:52.759Z,50.20
2023-03-03T18:40:24.949Z,48.22
2023-03-03T18:42:51.724Z,46.88
2023-03-03T18:45:18.110Z,43.35
2023-03-03T18:48:03.650Z,45.53
2023-03-03T18:50:48.314Z,56.95
2023-03-03T18:53:17.540Z,43.70
2023-03-03T18:55:45.175Z,44.53
2023-03-03T18:58:14.424Z,49.03
2023-03-03T19:00:51.488Z,45.58
2023-03-03T19:03:55.997Z,47.28
2023-03-03T19:06:56.352Z,48.72
2023-03-03T19:09:47.945Z,46.30
2023-03-03T19:12:17.512Z,52.50
2023-03-03T19:14:48.784Z,51.50
2023-03-03T19:17:18.212Z,51.00
2023-03-03T19:20:09.998Z,50.45
2023-03-03T19:23:05.682Z,50.28
2023-03-03T19:25:33.414Z,51.95
2023-03-03T19:28:15.150Z,56.90
2023-03-03T19:31:09.281Z,50.28
2023-03-03T19:33:49.647Z,52.08
2023-03-03T19:36:38.067Z,53.65
2023-03-03T19:39:16.686Z,55.63
2023-03-03T19:42:01.242Z,49.70
2023-03-03T19:44:33.809Z,47.30
2023-03-03T19:47:11.512Z,54.03
2023-03-03T19:49:56.835Z,50.53
2023-03-03T19:52:43.677Z,61.70
2023-03-03T19:55:28.917Z,52.10
2023-03-03T19:58:44.859Z,56.63
2023-03-03T20:01:21.692Z,48.97
2023-03-03T20:04:27.119Z,53.33
2023-03-03T20:07:24.683Z,54.30
2023-03-03T20:10:15.764Z,57.73
2023-03-03T20:15:19.286Z,53.47
2023-03-03T20:18:15.725Z,64.93
2023-03-03T20:21:05.365Z,61.47
2023-03-03T20:23:46.301Z,57.67
2023-03-03T20:29:21.685Z,55.00
2023-03-03T20:32:14.298Z,53.17
2023-03-03T20:35:04.882Z,63.70
2023-03-03T20:37:38.674Z,53.33
2023-03-03T20:40:16.176Z,58.70
2023-03-03T20:42:52.776Z,58.17
2023-03-03T20:45:35.267Z,57.00
2023-03-03T20:48:17.037Z,62.73
2023-03-03T20:50:58.828Z,59.67
2023-03-03T20:53:48.596Z,58.47
2023-03-03T20:56:42.796Z,64.47
2023-03-03T20:59:32.276Z,62.77
2023-03-03T21:02:23.468Z,57.83
2023-03-03T21:05:17.560Z,65.17
2023-03-03T21:08:05.316Z,59.40
2023-03-03T21:10:36.310Z,59.13
2023-03-03T21:13:21.417Z,56.90
2023-03-03T21:16:00.938Z,61.43
2023-03-03T21:18:27.536Z,62.73
2023-03-03T21:20:53.951Z,60.30
2023-03-03T21:23:20.480Z,67.47
2023-03-03T21:25:55.558Z,61.60
2023-03-03T21:28:22.377Z,63.90
2023-03-03T21:31:10.594Z,66.07
2023-03-03T21:33:41.139Z,65.27
2023-03-03T21:36:08.616Z,59.95
2023-03-03T21:38:36.857Z,66.53
2023-03-03T21:41:04.731Z,60.27
2023-03-03T21:43:40.512Z,63.03
2023-03-03T21:46:07.617Z,64.73
2023-03-03T21:48:34.493Z,62.57
2023-03-03T21:51:01.778Z,59.17
2023-03-03T21:53:29.649Z,58.83
2023-03-03T21:55:56.403Z,59.67
2023-03-03T21:58:22.908Z,65.17
2023-03-03T22:00:49.318Z,57.90
2023-03-03T22:03:15.825Z,57.83
2023-03-03T22:05:42.724Z,75.13
2023-03-03T22:08:09.171Z,70.37
2023-03-03T22:10:35.685Z,65.20
2023-03-03T22:13:03.493Z,65.43
2023-03-03T22:15:30.418Z,68.43
2023-03-03T22:17:58.132Z,59.30
2023-03-03T22:20:24.606Z,61.73
2023-03-03T22:22:51.115Z,69.73
2023-03-03T22:25:18.540Z,67.63
2023-03-03T22:27:45.436Z,60.97
2023-03-03T22:30:12.401Z,69.47
2023-03-03T22:32:38.810Z,60.90
2023-03-03T22:35:05.713Z,67.87
2023-03-03T22:37:32.272Z,67.23
2023-03-03T22:39:58.853Z,68.43
2023-03-03T22:42:25.479Z,63.43
2023-03-03T22:44:51.919Z,60.97
2023-03-03T22:47:18.462Z,62.47
2023-03-03T22:49:44.954Z,64.70
2023-03-03T22:52:11.650Z,60.53
2023-03-03T22:54:38.259Z,63.57
2023-03-03T22:57:05.934Z,66.13
2023-03-03T22:59:32.520Z,70.37
2023-03-03T23:01:59.839Z,66.57
2023-03-03T23:04:26.464Z,65.27
2023-03-03T23:06:53.215Z,67.67
2023-03-03T23:09:19.672Z,68.80
2023-03-03T23:11:47.469Z,69.67
2023-03-03T23:14:13.937Z,67.50
2023-03-03T23:16:40.757Z,63.20
2023-03-03T23:19:07.509Z,63.17
2023-03-03T23:21:33.934Z,58.80
2023-03-03T23:24:00.373Z,64.43
2023-03-03T23:26:27.121Z,61.20
2023-03-03T23:28:53.598Z,65.17
2023-03-03T23:31:20.226Z,70.00
2023-03-03T23:33:46.741Z,61.77
2023-03-03T23:36:13.089Z,65.10
2023-03-03T23:38:40.802Z,64.00
2023-03-03T23:41:09.105Z,64.70
2023-03-03T23:43:35.753Z,65.73
2023-03-03T23:46:02.175Z,62.83
2023-03-03T23:48:29.478Z,63.03
2023-03-03T23:50:56.204Z,65.13
2023-03-03T23:53:22.719Z,64.83
2023-03-03T23:55:49.208Z,62.57
2023-03-03T23:58:15.769Z,71.70
